sensor_id;sensor_type;location;lat;lon;timestamp;temperature;humidity
73939;DHT22;62291;47.554;8.504;2023-12-20T00:00:36;4.80;99.90
73939;DHT22;62291;47.554;8.504;2023-12-20T00:03:03;4.80;99.90
73939;DHT22;62291;47.554;8.504;2023-12-20T00:05:29;4.80;99.90
73939;DHT22;62291;47.554;8.504;2023-12-20T00:07:57;4.70;99.90
73939;DHT22;62291;47.554;8.504;2023-12-20T00:10:23;4.70;99.90
73939;DHT22;62291;47.554;8.504;2023-12-20T00:12:49;4.70;99.90
73939;DHT22;62291;47.554;8.504;2023-12-20T00:15:14;4.70;99.90
73939;DHT22;62291;47.554;8.504;2023-12-20T00:17:40;4.70;99.90
73939;DHT22;62291;47.554;8.504;2023-12-20T00:20:06;4.70;99.90
73939;DHT22;62291;47.554;8.504;2023-12-20T00:22:32;4.70;99.90
73939;DHT22;62291;47.554;8.504;2023-12-20T00:24:58;4.70;99.90
73939;DHT22;62291;47.554;8.504;2023-12-20T00:27:23;4.70;99.90
73939;DHT22;62291;47.554;8.504;2023-12-20T00:29:49;4.70;99.90
73939;DHT22;62291;47.554;8.504;2023-12-20T00:32:16;4.70;99.90
73939;DHT22;62291;47.554;8.504;2023-12-20T00:34:42;4.70;99.90
73939;DHT22;62291;47.554;8.504;2023-12-20T00:37:08;4.60;99.90
73939;DHT22;62291;47.554;8.504;2023-12-20T00:39:34;4.70;99.90
73939;DHT22;62291;47.554;8.504;2023-12-20T00:42:00;4.60;99.90
73939;DHT22;62291;47.554;8.504;2023-12-20T00:44:25;4.70;99.90
73939;DHT22;62291;47.554;8.504;2023-12-20T00:46:51;4.70;99.90
73939;DHT22;62291;47.554;8.504;2023-12-20T00:49:17;4.70;99.90
73939;DHT22;62291;47.554;8.504;2023-12-20T00:51:43;4.70;99.90
73939;DHT22;62291;47.554;8.504;2023-12-20T00:54:09;4.70;99.90
73939;DHT22;62291;47.554;8.504;2023-12-20T00:56:35;4.70;99.90
73939;DHT22;62291;47.554;8.504;2023-12-20T00:59:01;4.70;99.90
73939;DHT22;62291;47.554;8.504;2023-12-20T01:01:26;4.80;99.90
73939;DHT22;62291;47.554;8.504;2023-12-20T01:03:52;4.80;99.90
73939;DHT22;62291;47.554;8.504;2023-12-20T01:06:18;4.80;99.90
73939;DHT22;62291;47.554;8.504;2023-12-20T01:08:45;4.80;99.90
73939;DHT22;62291;47.554;8.504;2023-12-20T01:11:10;4.80;99.90
73939;DHT22;62291;47.554;8.504;2023-12-20T01:13:36;4.80;99.90
73939;DHT22;62291;47.554;8.504;2023-12-20T01:16:02;4.90;99.90
73939;DHT22;62291;47.554;8.504;2023-12-20T01:18:28;4.90;99.90
73939;DHT22;62291;47.554;8.504;2023-12-20T01:20:53;4.90;99.90
73939;DHT22;62291;47.554;8.504;2023-12-20T01:23:19;5.00;99.90
73939;DHT22;62291;47.554;8.504;2023-12-20T01:25:45;5.00;99.90
73939;DHT22;62291;47.554;8.504;2023-12-20T01:28:10;5.10;99.90
73939;DHT22;62291;47.554;8.504;2023-12-20T01:30:36;5.10;99.90
73939;DHT22;62291;47.554;8.504;2023-12-20T01:33:02;5.10;99.90
73939;DHT22;62291;47.554;8.504;2023-12-20T01:35:28;5.10;99.90
73939;DHT22;62291;47.554;8.504;2023-12-20T01:37:53;5.10;99.90
73939;DHT22;62291;47.554;8.504;2023-12-20T01:40:22;5.10;99.90
73939;DHT22;62291;47.554;8.504;2023-12-20T01:43:01;5.10;99.90
73939;DHT22;62291;47.554;8.504;2023-12-20T01:45:27;5.00;99.90
73939;DHT22;62291;47.554;8.504;2023-12-20T01:47:57;5.00;99.90
73939;DHT22;62291;47.554;8.504;2023-12-20T01:50:24;5.00;99.90
73939;DHT22;62291;47.554;8.504;2023-12-20T01:52:50;5.00;99.90
73939;DHT22;62291;47.554;8.504;2023-12-20T01:55:19;5.00;99.90
73939;DHT22;62291;47.554;8.504;2023-12-20T01:57:45;5.00;99.90
73939;DHT22;62291;47.554;8.504;2023-12-20T02:00:13;5.00;99.90
73939;DHT22;62291;47.554;8.504;2023-12-20T02:02:40;5.00;99.90
73939;DHT22;62291;47.554;8.504;2023-12-20T02:05:07;5.10;99.90
73939;DHT22;62291;47.554;8.504;2023-12-20T02:07:33;5.10;99.90
73939;DHT22;62291;47.554;8.504;2023-12-20T02:10:02;5.10;99.90
73939;DHT22;62291;47.554;8.504;2023-12-20T02:12:29;5.10;99.90
73939;DHT22;62291;47.554;8.504;2023-12-20T02:14:55;5.10;99.90
73939;DHT22;62291;47.554;8.504;2023-12-20T02:17:22;5.10;99.90
73939;DHT22;62291;47.554;8.504;2023-12-20T02:19:47;5.10;99.90
73939;DHT22;62291;47.554;8.504;2023-12-20T02:22:13;5.20;99.90
73939;DHT22;62291;47.554;8.504;2023-12-20T02:24:39;5.20;99.90
73939;DHT22;62291;47.554;8.504;2023-12-20T02:27:06;5.20;99.90
73939;DHT22;62291;47.554;8.504;2023-12-20T02:29:33;5.20;99.90
73939;DHT22;62291;47.554;8.504;2023-12-20T02:31:59;5.20;99.90
73939;DHT22;62291;47.554;8.504;2023-12-20T02:34:24;5.20;99.90
73939;DHT22;62291;47.554;8.504;2023-12-20T02:36:50;5.20;99.90
73939;DHT22;62291;47.554;8.504;2023-12-20T02:39:16;5.20;99.90
73939;DHT22;62291;47.554;8.504;2023-12-20T02:41:42;5.20;99.90
73939;DHT22;62291;47.554;8.504;2023-12-20T02:44:07;5.30;99.90
73939;DHT22;62291;47.554;8.504;2023-12-20T02:46:33;5.30;99.90
73939;DHT22;62291;47.554;8.504;2023-12-20T02:48:59;5.30;99.90
73939;DHT22;62291;47.554;8.504;2023-12-20T02:51:24;5.40;99.90
73939;DHT22;62291;47.554;8.504;2023-12-20T02:53:50;5.40;99.90
73939;DHT22;62291;47.554;8.504;2023-12-20T02:56:16;5.40;99.90
73939;DHT22;62291;47.554;8.504;2023-12-20T02:58:41;5.40;99.90
73939;DHT22;62291;47.554;8.504;2023-12-20T03:01:07;5.40;99.90
73939;DHT22;62291;47.554;8.504;2023-12-20T03:03:33;5.40;99.90
73939;DHT22;62291;47.554;8.504;2023-12-20T03:05:59;5.50;99.90
73939;DHT22;62291;47.554;8.504;2023-12-20T03:08:25;5.50;99.90
73939;DHT22;62291;47.554;8.504;2023-12-20T03:10:50;5.60;99.90
73939;DHT22;62291;47.554;8.504;2023-12-20T03:13:16;5.60;99.90
73939;DHT22;62291;47.554;8.504;2023-12-20T03:15:42;5.50;99.90
73939;DHT22;62291;47.554;8.504;2023-12-20T03:18:07;5.50;99.90
73939;DHT22;62291;47.554;8.504;2023-12-20T03:20:33;5.40;99.90
73939;DHT22;62291;47.554;8.504;2023-12-20T03:23:03;5.40;99.90
73939;DHT22;62291;47.554;8.504;2023-12-20T03:25:29;5.40;99.90
73939;DHT22;62291;47.554;8.504;2023-12-20T03:27:55;5.40;99.90
73939;DHT22;62291;47.554;8.504;2023-12-20T03:30:20;5.40;99.90
73939;DHT22;62291;47.554;8.504;2023-12-20T03:32:47;5.40;99.90
73939;DHT22;62291;47.554;8.504;2023-12-20T03:35:15;5.30;99.90
73939;DHT22;62291;47.554;8.504;2023-12-20T03:37:41;5.20;99.90
73939;DHT22;62291;47.554;8.504;2023-12-20T03:40:07;5.10;99.90
73939;DHT22;62291;47.554;8.504;2023-12-20T03:42:32;5.10;99.90
73939;DHT22;62291;47.554;8.504;2023-12-20T03:44:58;5.00;99.90
73939;DHT22;62291;47.554;8.504;2023-12-20T03:47:24;5.00;99.90
73939;DHT22;62291;47.554;8.504;2023-12-20T03:49:49;4.90;99.90
73939;DHT22;62291;47.554;8.504;2023-12-20T03:52:15;4.80;99.90
73939;DHT22;62291;47.554;8.504;2023-12-20T03:54:41;4.80;99.90
73939;DHT22;62291;47.554;8.504;2023-12-20T03:57:09;4.80;99.90
73939;DHT22;62291;47.554;8.504;2023-12-20T03:59:36;4.80;99.90
73939;DHT22;62291;47.554;8.504;2023-12-20T04:02:02;4.80;99.90
73939;DHT22;62291;47.554;8.504;2023-12-20T04:04:28;4.80;99.90
73939;DHT22;62291;47.554;8.504;2023-12-20T04:06:53;4.80;99.90
73939;DHT22;62291;47.554;8.504;2023-12-20T04:09:19;4.80;99.90
73939;DHT22;62291;47.554;8.504;2023-12-20T04:11:45;4.80;99.90
73939;DHT22;62291;47.554;8.504;2023-12-20T04:14:11;4.90;99.90
73939;DHT22;62291;47.554;8.504;2023-12-20T04:16:36;4.90;99.90
73939;DHT22;62291;47.554;8.504;2023-12-20T04:19:02;4.90;99.90
73939;DHT22;62291;47.554;8.504;2023-12-20T04:21:28;4.90;99.90
73939;DHT22;62291;47.554;8.504;2023-12-20T04:23:54;4.90;99.90
73939;DHT22;62291;47.554;8.504;2023-12-20T04:26:19;4.90;99.90
73939;DHT22;62291;47.554;8.504;2023-12-20T04:28:45;4.90;99.90
73939;DHT22;62291;47.554;8.504;2023-12-20T04:31:11;4.90;99.90
73939;DHT22;62291;47.554;8.504;2023-12-20T04:33:36;4.90;99.90
73939;DHT22;62291;47.554;8.504;2023-12-20T04:36:02;4.90;99.90
73939;DHT22;62291;47.554;8.504;2023-12-20T04:38:28;4.90;99.90
73939;DHT22;62291;47.554;8.504;2023-12-20T04:40:54;4.90;99.90
73939;DHT22;62291;47.554;8.504;2023-12-20T04:43:19;4.90;99.90
73939;DHT22;62291;47.554;8.504;2023-12-20T04:45:45;4.90;99.90
73939;DHT22;62291;47.554;8.504;2023-12-20T04:48:11;4.90;99.90
73939;DHT22;62291;47.554;8.504;2023-12-20T04:50:37;4.90;99.90
73939;DHT22;62291;47.554;8.504;2023-12-20T04:53:03;4.90;99.90
73939;DHT22;62291;47.554;8.504;2023-12-20T04:55:29;4.90;99.90
73939;DHT22;62291;47.554;8.504;2023-12-20T04:57:54;4.90;99.90
73939;DHT22;62291;47.554;8.504;2023-12-20T05:00:20;4.90;99.90
73939;DHT22;62291;47.554;8.504;2023-12-20T05:02:46;4.90;99.90
73939;DHT22;62291;47.554;8.504;2023-12-20T05:05:11;4.90;99.90
73939;DHT22;62291;47.554;8.504;2023-12-20T05:07:37;4.90;99.90
73939;DHT22;62291;47.554;8.504;2023-12-20T05:10:03;4.90;99.90
73939;DHT22;62291;47.554;8.504;2023-12-20T05:12:33;4.90;99.90
73939;DHT22;62291;47.554;8.504;2023-12-20T05:14:59;4.90;99.90
73939;DHT22;62291;47.554;8.504;2023-12-20T05:17:25;4.90;99.90
73939;DHT22;62291;47.554;8.504;2023-12-20T05:19:51;4.90;99.90
73939;DHT22;62291;47.554;8.504;2023-12-20T05:22:17;4.80;99.90
73939;DHT22;62291;47.554;8.504;2023-12-20T05:24:44;4.90;99.90
73939;DHT22;62291;47.554;8.504;2023-12-20T05:27:09;4.90;99.90
73939;DHT22;62291;47.554;8.504;2023-12-20T05:29:35;4.90;99.90
73939;DHT22;62291;47.554;8.504;2023-12-20T05:32:00;5.00;99.90
73939;DHT22;62291;47.554;8.504;2023-12-20T05:34:26;4.90;99.90
73939;DHT22;62291;47.554;8.504;2023-12-20T05:36:52;5.00;99.90
73939;DHT22;62291;47.554;8.504;2023-12-20T05:39:17;5.00;99.90
73939;DHT22;62291;47.554;8.504;2023-12-20T05:41:43;5.00;99.90
73939;DHT22;62291;47.554;8.504;2023-12-20T05:44:09;5.00;99.90
73939;DHT22;62291;47.554;8.504;2023-12-20T05:46:35;5.00;99.90
73939;DHT22;62291;47.554;8.504;2023-12-20T05:49:01;5.00;99.90
73939;DHT22;62291;47.554;8.504;2023-12-20T05:51:28;5.00;99.90
73939;DHT22;62291;47.554;8.504;2023-12-20T05:53:53;5.10;99.90
73939;DHT22;62291;47.554;8.504;2023-12-20T05:56:19;5.10;99.90
73939;DHT22;62291;47.554;8.504;2023-12-20T05:58:45;5.10;99.90
73939;DHT22;62291;47.554;8.504;2023-12-20T06:01:10;5.10;99.90
73939;DHT22;62291;47.554;8.504;2023-12-20T06:03:36;5.10;99.90
73939;DHT22;62291;47.554;8.504;2023-12-20T06:06:08;5.20;99.90
73939;DHT22;62291;47.554;8.504;2023-12-20T06:08:34;5.20;99.90
73939;DHT22;62291;47.554;8.504;2023-12-20T06:11:00;5.30;99.90
73939;DHT22;62291;47.554;8.504;2023-12-20T06:13:25;5.30;99.90
73939;DHT22;62291;47.554;8.504;2023-12-20T06:15:54;5.30;99.90
73939;DHT22;62291;47.554;8.504;2023-12-20T06:18:19;5.40;99.90
73939;DHT22;62291;47.554;8.504;2023-12-20T06:20:45;5.40;99.90
73939;DHT22;62291;47.554;8.504;2023-12-20T06:23:11;5.40;99.90
73939;DHT22;62291;47.554;8.504;2023-12-20T06:25:36;5.40;99.90
73939;DHT22;62291;47.554;8.504;2023-12-20T06:28:02;5.40;99.90
73939;DHT22;62291;47.554;8.504;2023-12-20T06:30:28;5.50;99.90
73939;DHT22;62291;47.554;8.504;2023-12-20T06:32:54;5.50;99.90
73939;DHT22;62291;47.554;8.504;2023-12-20T06:35:20;5.50;99.90
73939;DHT22;62291;47.554;8.504;2023-12-20T06:37:46;5.50;99.90
73939;DHT22;62291;47.554;8.504;2023-12-20T06:40:12;5.50;99.90
73939;DHT22;62291;47.554;8.504;2023-12-20T06:42:38;5.50;99.90
73939;DHT22;62291;47.554;8.504;2023-12-20T06:45:04;5.50;99.90
73939;DHT22;62291;47.554;8.504;2023-12-20T06:47:29;5.60;99.90
73939;DHT22;62291;47.554;8.504;2023-12-20T06:49:55;5.60;99.90
73939;DHT22;62291;47.554;8.504;2023-12-20T06:52:21;5.60;99.90
73939;DHT22;62291;47.554;8.504;2023-12-20T06:54:47;5.60;99.90
73939;DHT22;62291;47.554;8.504;2023-12-20T06:57:13;5.60;99.90
73939;DHT22;62291;47.554;8.504;2023-12-20T06:59:42;5.60;99.90
73939;DHT22;62291;47.554;8.504;2023-12-20T07:02:08;5.60;99.90
73939;DHT22;62291;47.554;8.504;2023-12-20T07:04:35;5.70;99.90
73939;DHT22;62291;47.554;8.504;2023-12-20T07:07:04;5.70;99.90
73939;DHT22;62291;47.554;8.504;2023-12-20T07:09:29;5.70;99.90
73939;DHT22;62291;47.554;8.504;2023-12-20T07:11:55;5.70;99.90
73939;DHT22;62291;47.554;8.504;2023-12-20T07:14:21;5.70;99.90
73939;DHT22;62291;47.554;8.504;2023-12-20T07:16:47;5.70;99.90
73939;DHT22;62291;47.554;8.504;2023-12-20T07:19:12;5.70;99.90
73939;DHT22;62291;47.554;8.504;2023-12-20T07:21:38;5.80;99.90
73939;DHT22;62291;47.554;8.504;2023-12-20T07:24:04;5.80;99.90
73939;DHT22;62291;47.554;8.504;2023-12-20T07:26:30;5.70;99.90
73939;DHT22;62291;47.554;8.504;2023-12-20T07:28:56;5.80;99.90
73939;DHT22;62291;47.554;8.504;2023-12-20T07:31:21;5.80;99.90
73939;DHT22;62291;47.554;8.504;2023-12-20T07:33:47;5.80;99.90
73939;DHT22;62291;47.554;8.504;2023-12-20T07:36:13;5.80;99.90
73939;DHT22;62291;47.554;8.504;2023-12-20T07:38:38;5.80;99.90
73939;DHT22;62291;47.554;8.504;2023-12-20T07:41:04;5.80;99.90
73939;DHT22;62291;47.554;8.504;2023-12-20T07:43:30;5.80;99.90
73939;DHT22;62291;47.554;8.504;2023-12-20T07:45:56;5.80;99.90
73939;DHT22;62291;47.554;8.504;2023-12-20T07:48:21;5.80;99.90
73939;DHT22;62291;47.554;8.504;2023-12-20T07:50:47;5.80;99.90
73939;DHT22;62291;47.554;8.504;2023-12-20T07:53:13;5.70;99.90
73939;DHT22;62291;47.554;8.504;2023-12-20T07:55:39;5.80;99.90
73939;DHT22;62291;47.554;8.504;2023-12-20T07:58:05;5.80;99.90
73939;DHT22;62291;47.554;8.504;2023-12-20T08:00:30;5.80;99.90
73939;DHT22;62291;47.554;8.504;2023-12-20T08:02:56;5.80;99.90
73939;DHT22;62291;47.554;8.504;2023-12-20T08:05:22;5.80;99.90
73939;DHT22;62291;47.554;8.504;2023-12-20T08:07:47;5.80;99.90
73939;DHT22;62291;47.554;8.504;2023-12-20T08:10:13;5.80;99.90
73939;DHT22;62291;47.554;8.504;2023-12-20T08:12:39;5.80;99.90
73939;DHT22;62291;47.554;8.504;2023-12-20T08:15:06;5.90;99.90
73939;DHT22;62291;47.554;8.504;2023-12-20T08:17:31;5.90;99.90
73939;DHT22;62291;47.554;8.504;2023-12-20T08:19:57;5.90;99.90
73939;DHT22;62291;47.554;8.504;2023-12-20T08:22:23;6.00;99.90
73939;DHT22;62291;47.554;8.504;2023-12-20T08:24:49;6.00;99.90
73939;DHT22;62291;47.554;8.504;2023-12-20T08:27:14;6.10;99.90
73939;DHT22;62291;47.554;8.504;2023-12-20T08:29:40;6.10;99.90
73939;DHT22;62291;47.554;8.504;2023-12-20T08:32:06;6.00;99.90
73939;DHT22;62291;47.554;8.504;2023-12-20T08:34:31;6.10;99.90
73939;DHT22;62291;47.554;8.504;2023-12-20T08:36:57;6.20;99.90
73939;DHT22;62291;47.554;8.504;2023-12-20T08:39:23;6.20;99.90
73939;DHT22;62291;47.554;8.504;2023-12-20T08:41:48;6.20;99.90
73939;DHT22;62291;47.554;8.504;2023-12-20T08:44:14;6.20;99.90
73939;DHT22;62291;47.554;8.504;2023-12-20T08:46:40;6.20;99.90
73939;DHT22;62291;47.554;8.504;2023-12-20T08:49:05;6.20;99.90
73939;DHT22;62291;47.554;8.504;2023-12-20T08:51:31;6.30;99.90
73939;DHT22;62291;47.554;8.504;2023-12-20T08:53:57;6.30;99.90
73939;DHT22;62291;47.554;8.504;2023-12-20T08:56:22;6.30;99.90
73939;DHT22;62291;47.554;8.504;2023-12-20T08:58:48;6.40;99.90
73939;DHT22;62291;47.554;8.504;2023-12-20T09:01:14;6.40;99.90
73939;DHT22;62291;47.554;8.504;2023-12-20T09:03:40;6.50;99.90
73939;DHT22;62291;47.554;8.504;2023-12-20T09:06:06;6.50;99.90
73939;DHT22;62291;47.554;8.504;2023-12-20T09:08:32;6.50;99.90
73939;DHT22;62291;47.554;8.504;2023-12-20T09:10:58;6.60;99.90
73939;DHT22;62291;47.554;8.504;2023-12-20T09:13:24;6.70;99.90
73939;DHT22;62291;47.554;8.504;2023-12-20T09:15:55;6.70;99.90
73939;DHT22;62291;47.554;8.504;2023-12-20T09:18:21;6.70;99.90
73939;DHT22;62291;47.554;8.504;2023-12-20T09:20:46;6.80;99.90
73939;DHT22;62291;47.554;8.504;2023-12-20T09:23:12;6.90;99.90
73939;DHT22;62291;47.554;8.504;2023-12-20T09:25:38;7.00;99.90
73939;DHT22;62291;47.554;8.504;2023-12-20T09:28:04;7.00;99.90
73939;DHT22;62291;47.554;8.504;2023-12-20T09:30:30;7.10;99.90
73939;DHT22;62291;47.554;8.504;2023-12-20T09:32:55;7.20;99.90
73939;DHT22;62291;47.554;8.504;2023-12-20T09:35:21;7.30;99.90
73939;DHT22;62291;47.554;8.504;2023-12-20T09:37:47;7.30;99.90
73939;DHT22;62291;47.554;8.504;2023-12-20T09:40:13;7.40;99.90
73939;DHT22;62291;47.554;8.504;2023-12-20T09:45:14;7.40;99.90
73939;DHT22;62291;47.554;8.504;2023-12-20T09:47:40;7.40;99.90
73939;DHT22;62291;47.554;8.504;2023-12-20T09:50:08;7.40;99.90
73939;DHT22;62291;47.554;8.504;2023-12-20T09:52:34;7.40;99.90
73939;DHT22;62291;47.554;8.504;2023-12-20T09:55:04;7.30;99.90
73939;DHT22;62291;47.554;8.504;2023-12-20T09:57:32;7.30;99.90
73939;DHT22;62291;47.554;8.504;2023-12-20T09:59:58;7.20;99.90
73939;DHT22;62291;47.554;8.504;2023-12-20T10:02:25;7.20;99.90
73939;DHT22;62291;47.554;8.504;2023-12-20T10:04:55;7.10;99.90
73939;DHT22;62291;47.554;8.504;2023-12-20T10:07:21;7.10;99.90
73939;DHT22;62291;47.554;8.504;2023-12-20T10:09:48;7.10;99.90
73939;DHT22;62291;47.554;8.504;2023-12-20T10:12:14;7.10;99.90
73939;DHT22;62291;47.554;8.504;2023-12-20T10:14:40;7.10;99.90
73939;DHT22;62291;47.554;8.504;2023-12-20T10:17:06;7.20;99.90
73939;DHT22;62291;47.554;8.504;2023-12-20T10:19:32;7.20;99.90
73939;DHT22;62291;47.554;8.504;2023-12-20T10:21:59;7.20;99.90
73939;DHT22;62291;47.554;8.504;2023-12-20T10:24:28;7.10;99.90
73939;DHT22;62291;47.554;8.504;2023-12-20T10:27:04;7.20;99.90
73939;DHT22;62291;47.554;8.504;2023-12-20T10:29:37;7.20;99.90
73939;DHT22;62291;47.554;8.504;2023-12-20T10:32:26;7.20;99.90
73939;DHT22;62291;47.554;8.504;2023-12-20T10:34:53;7.20;99.90
73939;DHT22;62291;47.554;8.504;2023-12-20T10:37:19;7.30;99.90
73939;DHT22;62291;47.554;8.504;2023-12-20T10:39:50;7.20;99.90
73939;DHT22;62291;47.554;8.504;2023-12-20T10:42:18;7.20;99.90
73939;DHT22;62291;47.554;8.504;2023-12-20T10:44:46;7.20;99.90
73939;DHT22;62291;47.554;8.504;2023-12-20T10:47:13;7.30;99.90
73939;DHT22;62291;47.554;8.504;2023-12-20T10:49:39;7.30;99.90
73939;DHT22;62291;47.554;8.504;2023-12-20T10:52:06;7.40;99.90
73939;DHT22;62291;47.554;8.504;2023-12-20T10:54:33;7.40;99.90
73939;DHT22;62291;47.554;8.504;2023-12-20T10:56:59;7.50;99.90
73939;DHT22;62291;47.554;8.504;2023-12-20T10:59:28;7.50;99.90
73939;DHT22;62291;47.554;8.504;2023-12-20T11:01:56;7.50;99.90
73939;DHT22;62291;47.554;8.504;2023-12-20T11:04:56;7.60;99.90
73939;DHT22;62291;47.554;8.504;2023-12-20T11:07:38;7.60;99.90
73939;DHT22;62291;47.554;8.504;2023-12-20T11:10:26;7.60;99.90
73939;DHT22;62291;47.554;8.504;2023-12-20T11:12:57;7.50;99.90
73939;DHT22;62291;47.554;8.504;2023-12-20T11:15:24;7.40;99.90
73939;DHT22;62291;47.554;8.504;2023-12-20T11:17:57;7.30;99.90
73939;DHT22;62291;47.554;8.504;2023-12-20T11:20:24;7.30;99.90
73939;DHT22;62291;47.554;8.504;2023-12-20T11:23:00;7.40;99.90
73939;DHT22;62291;47.554;8.504;2023-12-20T11:25:26;7.50;99.90
73939;DHT22;62291;47.554;8.504;2023-12-20T11:28:09;7.60;99.90
73939;DHT22;62291;47.554;8.504;2023-12-20T11:33:36;7.70;99.90
73939;DHT22;62291;47.554;8.504;2023-12-20T11:36:02;7.90;99.90
73939;DHT22;62291;47.554;8.504;2023-12-20T11:38:36;8.30;99.90
73939;DHT22;62291;47.554;8.504;2023-12-20T11:41:05;8.40;99.90
73939;DHT22;62291;47.554;8.504;2023-12-20T11:43:32;8.30;99.90
73939;DHT22;62291;47.554;8.504;2023-12-20T11:46:07;8.20;99.90
73939;DHT22;62291;47.554;8.504;2023-12-20T11:48:36;8.10;99.90
73939;DHT22;62291;47.554;8.504;2023-12-20T11:51:02;8.00;99.90
73939;DHT22;62291;47.554;8.504;2023-12-20T11:53:29;8.20;99.90
73939;DHT22;62291;47.554;8.504;2023-12-20T11:55:56;8.30;99.90
73939;DHT22;62291;47.554;8.504;2023-12-20T11:58:22;8.20;99.90
73939;DHT22;62291;47.554;8.504;2023-12-20T12:00:49;8.10;99.90
73939;DHT22;62291;47.554;8.504;2023-12-20T12:03:15;8.30;99.90
73939;DHT22;62291;47.554;8.504;2023-12-20T12:05:41;8.50;99.90
73939;DHT22;62291;47.554;8.504;2023-12-20T12:08:07;8.50;99.90
73939;DHT22;62291;47.554;8.504;2023-12-20T12:10:33;8.50;99.90
73939;DHT22;62291;47.554;8.504;2023-12-20T12:12:59;8.70;99.90
73939;DHT22;62291;47.554;8.504;2023-12-20T12:15:26;8.60;99.90
73939;DHT22;62291;47.554;8.504;2023-12-20T12:17:55;8.60;99.90
73939;DHT22;62291;47.554;8.504;2023-12-20T12:20:25;8.70;99.90
73939;DHT22;62291;47.554;8.504;2023-12-20T12:23:03;8.60;99.90
73939;DHT22;62291;47.554;8.504;2023-12-20T12:25:30;8.50;99.90
73939;DHT22;62291;47.554;8.504;2023-12-20T12:27:57;8.60;99.90
73939;DHT22;62291;47.554;8.504;2023-12-20T12:30:23;8.50;99.90
73939;DHT22;62291;47.554;8.504;2023-12-20T12:32:49;8.40;99.90
73939;DHT22;62291;47.554;8.504;2023-12-20T12:35:15;8.30;99.90
73939;DHT22;62291;47.554;8.504;2023-12-20T12:37:41;8.20;99.90
73939;DHT22;62291;47.554;8.504;2023-12-20T12:40:10;8.20;99.90
73939;DHT22;62291;47.554;8.504;2023-12-20T12:42:40;8.20;99.90
73939;DHT22;62291;47.554;8.504;2023-12-20T12:45:07;8.00;99.90
73939;DHT22;62291;47.554;8.504;2023-12-20T12:47:33;7.90;99.90
73939;DHT22;62291;47.554;8.504;2023-12-20T12:49:59;7.70;99.90
73939;DHT22;62291;47.554;8.504;2023-12-20T12:52:25;7.60;99.90
73939;DHT22;62291;47.554;8.504;2023-12-20T12:54:52;7.60;99.90
73939;DHT22;62291;47.554;8.504;2023-12-20T12:57:18;7.50;99.90
73939;DHT22;62291;47.554;8.504;2023-12-20T12:59:44;7.50;99.90
73939;DHT22;62291;47.554;8.504;2023-12-20T13:02:12;7.50;99.90
73939;DHT22;62291;47.554;8.504;2023-12-20T13:04:39;7.50;99.90
73939;DHT22;62291;47.554;8.504;2023-12-20T13:07:06;7.50;99.90
73939;DHT22;62291;47.554;8.504;2023-12-20T13:09:32;7.50;99.90
73939;DHT22;62291;47.554;8.504;2023-12-20T13:11:57;7.50;99.90
73939;DHT22;62291;47.554;8.504;2023-12-20T13:14:24;7.40;99.90
73939;DHT22;62291;47.554;8.504;2023-12-20T13:16:49;7.30;99.90
73939;DHT22;62291;47.554;8.504;2023-12-20T13:19:15;7.30;99.90
73939;DHT22;62291;47.554;8.504;2023-12-20T13:21:41;7.30;99.90
73939;DHT22;62291;47.554;8.504;2023-12-20T13:24:07;7.20;99.90
73939;DHT22;62291;47.554;8.504;2023-12-20T13:26:32;7.30;99.90
73939;DHT22;62291;47.554;8.504;2023-12-20T13:28:58;7.30;99.90
73939;DHT22;62291;47.554;8.504;2023-12-20T13:31:24;7.30;99.90
73939;DHT22;62291;47.554;8.504;2023-12-20T13:33:50;7.20;99.90
73939;DHT22;62291;47.554;8.504;2023-12-20T13:36:20;7.10;99.90
73939;DHT22;62291;47.554;8.504;2023-12-20T13:38:46;7.10;99.90
73939;DHT22;62291;47.554;8.504;2023-12-20T13:41:12;7.00;99.90
73939;DHT22;62291;47.554;8.504;2023-12-20T13:43:38;7.00;99.90
73939;DHT22;62291;47.554;8.504;2023-12-20T13:46:03;6.90;99.90
73939;DHT22;62291;47.554;8.504;2023-12-20T13:48:29;6.80;99.90
73939;DHT22;62291;47.554;8.504;2023-12-20T13:50:55;6.80;99.90
73939;DHT22;62291;47.554;8.504;2023-12-20T13:53:20;6.70;99.90
73939;DHT22;62291;47.554;8.504;2023-12-20T13:55:46;6.80;99.90
73939;DHT22;62291;47.554;8.504;2023-12-20T13:58:12;6.70;99.90
73939;DHT22;62291;47.554;8.504;2023-12-20T14:00:37;6.70;99.90
73939;DHT22;62291;47.554;8.504;2023-12-20T14:03:04;6.60;99.90
73939;DHT22;62291;47.554;8.504;2023-12-20T14:05:30;6.50;99.90
73939;DHT22;62291;47.554;8.504;2023-12-20T14:07:56;6.50;99.90
73939;DHT22;62291;47.554;8.504;2023-12-20T14:10:26;6.40;99.90
73939;DHT22;62291;47.554;8.504;2023-12-20T14:12:55;6.30;99.90
73939;DHT22;62291;47.554;8.504;2023-12-20T14:15:23;6.20;99.90
73939;DHT22;62291;47.554;8.504;2023-12-20T14:17:50;6.10;99.90
73939;DHT22;62291;47.554;8.504;2023-12-20T14:20:16;6.10;99.90
73939;DHT22;62291;47.554;8.504;2023-12-20T14:22:43;6.00;99.90
73939;DHT22;62291;47.554;8.504;2023-12-20T14:25:15;6.00;99.90
73939;DHT22;62291;47.554;8.504;2023-12-20T14:27:41;5.90;99.90
73939;DHT22;62291;47.554;8.504;2023-12-20T14:30:09;5.80;99.90
73939;DHT22;62291;47.554;8.504;2023-12-20T14:32:35;5.70;99.90
73939;DHT22;62291;47.554;8.504;2023-12-20T14:35:05;5.60;99.90
73939;DHT22;62291;47.554;8.504;2023-12-20T14:37:32;5.60;99.90
73939;DHT22;62291;47.554;8.504;2023-12-20T14:39:57;5.60;99.90
73939;DHT22;62291;47.554;8.504;2023-12-20T14:42:23;5.50;99.90
73939;DHT22;62291;47.554;8.504;2023-12-20T14:44:49;5.40;99.90
73939;DHT22;62291;47.554;8.504;2023-12-20T14:47:15;5.40;99.90
73939;DHT22;62291;47.554;8.504;2023-12-20T14:49:41;5.30;99.90
73939;DHT22;62291;47.554;8.504;2023-12-20T14:52:08;5.30;99.90
73939;DHT22;62291;47.554;8.504;2023-12-20T14:54:36;5.20;99.90
73939;DHT22;62291;47.554;8.504;2023-12-20T14:57:02;5.20;99.90
73939;DHT22;62291;47.554;8.504;2023-12-20T14:59:28;5.20;99.90
73939;DHT22;62291;47.554;8.504;2023-12-20T15:01:54;5.10;99.90
73939;DHT22;62291;47.554;8.504;2023-12-20T15:04:20;5.10;99.90
73939;DHT22;62291;47.554;8.504;2023-12-20T15:06:53;5.00;99.90
73939;DHT22;62291;47.554;8.504;2023-12-20T15:09:18;5.00;99.90
73939;DHT22;62291;47.554;8.504;2023-12-20T15:11:44;4.90;99.90
73939;DHT22;62291;47.554;8.504;2023-12-20T15:14:10;4.90;99.90
73939;DHT22;62291;47.554;8.504;2023-12-20T15:16:36;4.90;99.90
73939;DHT22;62291;47.554;8.504;2023-12-20T15:19:01;4.80;99.90
73939;DHT22;62291;47.554;8.504;2023-12-20T15:21:28;4.70;99.90
73939;DHT22;62291;47.554;8.504;2023-12-20T15:23:59;4.60;99.90
73939;DHT22;62291;47.554;8.504;2023-12-20T15:26:34;4.60;99.90
73939;DHT22;62291;47.554;8.504;2023-12-20T15:29:00;4.60;99.90
73939;DHT22;62291;47.554;8.504;2023-12-20T15:31:27;4.50;99.90
73939;DHT22;62291;47.554;8.504;2023-12-20T15:33:53;4.40;99.90
73939;DHT22;62291;47.554;8.504;2023-12-20T15:36:19;4.40;99.90
73939;DHT22;62291;47.554;8.504;2023-12-20T15:38:45;4.20;99.90
73939;DHT22;62291;47.554;8.504;2023-12-20T15:41:20;4.20;99.90
73939;DHT22;62291;47.554;8.504;2023-12-20T15:43:46;4.00;99.90
73939;DHT22;62291;47.554;8.504;2023-12-20T15:46:12;3.90;99.90